createdAt,value
2024-03-09T00:00:00.000Z,79.99
2024-03-09T00:15:00.000Z,80.31
2024-03-09T00:30:00.000Z,79.57
2024-03-09T00:45:00.000Z,78.59
2024-03-09T01:00:00.000Z,78.88
2024-03-09T01:15:00.000Z,79.48
2024-03-09T01:30:00.000Z,79.64
2024-03-09T01:45:00.000Z,79.57
2024-03-09T02:00:00.000Z,80.39
2024-03-09T02:15:00.000Z,80.84
2024-03-09T02:30:00.000Z,81.38
2024-03-09T02:45:00.000Z,81.8
2024-03-09T03:00:00.000Z,82.38
2024-03-09T03:15:00.000Z,82.1
2024-03-09T03:30:00.000Z,82.22
2024-03-09T03:45:00.000Z,83.1
2024-03-09T04:00:00.000Z,83.25
2024-03-09T04:15:00.000Z,82.92
2024-03-09T04:30:00.000Z,82.84
2024-03-09T04:45:00.000Z,83
2024-03-09T05:00:00.000Z,83.17
2024-03-09T05:15:00.000Z,83.02
2024-03-09T05:30:00.000Z,83.18
2024-03-09T05:45:00.000Z,83.94
2024-03-09T06:00:00.000Z,83.71
2024-03-09T06:15:00.000Z,82.94
2024-03-09T06:30:00.000Z,78.54
2024-03-09T06:45:00.000Z,74.94
2024-03-09T07:00:00.000Z,69.79
2024-03-09T07:15:00.000Z,63.28
2024-03-09T07:30:00.000Z,60.56
2024-03-09T07:45:00.000Z,57.82
2024-03-09T08:00:00.000Z,55.03
2024-03-09T08:15:00.000Z,54.36
2024-03-09T08:30:00.000Z,54.29
2024-03-09T08:45:00.000Z,49.65
2024-03-09T09:00:00.000Z,49.08
2024-03-09T09:15:00.000Z,50.92
2024-03-09T09:30:00.000Z,50.82
2024-03-09T09:45:00.000Z,53
2024-03-09T10:00:00.000Z,52.99
2024-03-09T10:15:00.000Z,53
2024-03-09T10:30:00.000Z,53.16
2024-03-09T10:45:00.000Z,50.91
2024-03-09T11:00:00.000Z,49.99
2024-03-09T11:15:00.000Z,45.86
2024-03-09T11:30:00.000Z,45.41
2024-03-09T11:45:00.000Z,45.72
2024-03-09T12:00:00.000Z,45.98
2024-03-09T12:15:00.000Z,45.81
2024-03-09T12:30:00.000Z,44.61
2024-03-09T12:45:00.000Z,46.1
2024-03-09T13:00:00.000Z,44.28
2024-03-09T13:15:00.000Z,43.92
2024-03-09T13:30:00.000Z,44.11
2024-03-09T13:45:00.000Z,44.7
2024-03-09T14:00:00.000Z,45.9
2024-03-09T14:15:00.000Z,46.75
2024-03-09T14:30:00.000Z,47.58
2024-03-09T14:45:00.000Z,47.86
2024-03-09T15:00:00.000Z,47.36
2024-03-09T15:15:00.000Z,48.13
2024-03-09T15:30:00.000Z,49.11
2024-03-09T15:45:00.000Z,50.17
2024-03-09T16:00:00.000Z,49.43
2024-03-09T16:15:00.000Z,48.01
2024-03-09T16:30:00.000Z,46.55
2024-03-09T16:45:00.000Z,47.8
2024-03-09T17:00:00.000Z,49.8
2024-03-09T17:15:00.000Z,51.88
2024-03-09T17:30:00.000Z,53.78
2024-03-09T17:45:00.000Z,44.78
2024-03-09T18:00:00.000Z,48.93
2024-03-09T18:15:00.000Z,38.33
2024-03-09T18:30:00.000Z,37.74
2024-03-09T18:45:00.000Z,37.23
2024-03-09T19:00:00.000Z,36.71
2024-03-09T19:15:00.000Z,35.97
2024-03-09T19:30:00.000Z,35.45
2024-03-09T19:45:00.000Z,37.72
2024-03-09T20:00:00.000Z,38.55
2024-03-09T20:15:00.000Z,38.65
2024-03-09T20:30:00.000Z,37.09
2024-03-09T20:45:00.000Z,37.72
2024-03-09T21:00:00.000Z,37.37
2024-03-09T21:15:00.000Z,37.27
2024-03-09T21:30:00.000Z,37.15
2024-03-09T21:45:00.000Z,36.99
2024-03-09T22:00:00.000Z,36.7
2024-03-09T22:15:00.000Z,35.04
2024-03-09T22:30:00.000Z,38.42
2024-03-09T22:45:00.000Z,39.52
2024-03-09T23:00:00.000Z,48.35
2024-03-09T23:15:00.000Z,38.78
2024-03-09T23:30:00.000Z,38.76
2024-03-09T23:45:00.000Z,51.99
